sensor_id;sensor_type;location;lat;lon;timestamp;pressure;altitude;pressure_sealevel;temperature;humidity
23223;BME280;11780;13.904;100.620;2023-06-14T00:01:10;100968.53;;;31.40;69.56
23223;BME280;11780;13.904;100.620;2023-06-14T00:03:43;100956.97;;;31.38;69.22
23223;BME280;11780;13.904;100.620;2023-06-14T00:06:15;100960.56;;;31.38;69.26
23223;BME280;11780;13.904;100.620;2023-06-14T00:08:45;100951.78;;;31.36;69.18
23223;BME280;11780;13.904;100.620;2023-06-14T00:11:16;100955.84;;;31.39;68.95
23223;BME280;11780;13.904;100.620;2023-06-14T00:13:46;100954.72;;;31.40;68.92
23223;BME280;11780;13.904;100.620;2023-06-14T00:16:17;100960.91;;;31.37;68.92
23223;BME280;11780;13.904;100.620;2023-06-14T00:18:49;100958.28;;;31.40;68.71
23223;BME280;11780;13.904;100.620;2023-06-14T00:21:22;100955.53;;;31.40;68.73
23223;BME280;11780;13.904;100.620;2023-06-14T00:23:53;100959.44;;;31.39;68.63
23223;BME280;11780;13.904;100.620;2023-06-14T00:26:23;100960.22;;;31.40;68.70
23223;BME280;11780;13.904;100.620;2023-06-14T00:28:56;100964.63;;;31.41;68.49
23223;BME280;11780;13.904;100.620;2023-06-14T00:31:27;100960.56;;;31.38;68.65
23223;BME280;11780;13.904;100.620;2023-06-14T00:33:58;100957.16;;;31.41;68.78
23223;BME280;11780;13.904;100.620;2023-06-14T00:36:28;100962.34;;;31.43;68.43
23223;BME280;11780;13.904;100.620;2023-06-14T00:38:58;100968.22;;;31.41;68.81
23223;BME280;11780;13.904;100.620;2023-06-14T00:41:29;100969.50;;;31.44;68.71
23223;BME280;11780;13.904;100.620;2023-06-14T00:43:59;100973.91;;;31.45;69.15
23223;BME280;11780;13.904;100.620;2023-06-14T00:46:30;100975.03;;;31.44;68.79
23223;BME280;11780;13.904;100.620;2023-06-14T00:49:00;100981.06;;;31.46;68.94
23223;BME280;11780;13.904;100.620;2023-06-14T00:51:31;100967.09;;;31.42;69.32
23223;BME280;11780;13.904;100.620;2023-06-14T00:54:02;100975.53;;;31.46;69.04
23223;BME280;11780;13.904;100.620;2023-06-14T00:56:32;100973.41;;;31.43;69.05
23223;BME280;11780;13.904;100.620;2023-06-14T00:59:03;100978.63;;;31.44;69.34
23223;BME280;11780;13.904;100.620;2023-06-14T01:01:33;100986.94;;;31.44;69.00
23223;BME280;11780;13.904;100.620;2023-06-14T01:04:04;100993.13;;;31.50;69.00
23223;BME280;11780;13.904;100.620;2023-06-14T01:12:35;100994.56;;;31.48;68.97
23223;BME280;11780;13.904;100.620;2023-06-14T01:15:07;101001.56;;;31.45;69.06
23223;BME280;11780;13.904;100.620;2023-06-14T01:17:37;100996.03;;;31.45;69.16
23223;BME280;11780;13.904;100.620;2023-06-14T01:20:15;100993.25;;;31.45;69.37
23223;BME280;11780;13.904;100.620;2023-06-14T01:22:53;100996.03;;;31.45;69.50
23223;BME280;11780;13.904;100.620;2023-06-14T01:25:24;100996.53;;;31.47;69.18
23223;BME280;11780;13.904;100.620;2023-06-14T01:28:04;100993.63;;;31.52;68.68
23223;BME280;11780;13.904;100.620;2023-06-14T01:30:41;100993.75;;;31.47;68.25
23223;BME280;11780;13.904;100.620;2023-06-14T01:33:20;100993.41;;;31.49;68.66
23223;BME280;11780;13.904;100.620;2023-06-14T01:35:52;101000.28;;;31.51;68.42
23223;BME280;11780;13.904;100.620;2023-06-14T01:38:25;101002.22;;;31.51;67.79
23223;BME280;11780;13.904;100.620;2023-06-14T01:40:58;100999.78;;;31.49;68.33
23223;BME280;11780;13.904;100.620;2023-06-14T01:43:31;101002.72;;;31.53;68.00
23223;BME280;11780;13.904;100.620;2023-06-14T01:46:05;100993.13;;;31.50;68.06
23223;BME280;11780;13.904;100.620;2023-06-14T01:48:36;101000.28;;;31.51;68.14
23223;BME280;11780;13.904;100.620;2023-06-14T01:51:07;101003.03;;;31.51;68.04
23223;BME280;11780;13.904;100.620;2023-06-14T01:53:37;100998.81;;;31.54;67.96
23223;BME280;11780;13.904;100.620;2023-06-14T01:56:10;101001.06;;;31.52;67.61
23223;BME280;11780;13.904;100.620;2023-06-14T01:58:40;101004.34;;;31.54;68.34
23223;BME280;11780;13.904;100.620;2023-06-14T02:01:11;100994.25;;;31.49;68.23
23223;BME280;11780;13.904;100.620;2023-06-14T02:03:44;101003.34;;;31.50;67.88
23223;BME280;11780;13.904;100.620;2023-06-14T02:06:16;100987.59;;;31.50;68.30
23223;BME280;11780;13.904;100.620;2023-06-14T02:08:47;101001.91;;;31.52;68.51
23223;BME280;11780;13.904;100.620;2023-06-14T02:11:17;100995.72;;;31.55;68.19
23223;BME280;11780;13.904;100.620;2023-06-14T02:13:50;100995.72;;;31.55;68.16
23223;BME280;11780;13.904;100.620;2023-06-14T02:16:20;100992.44;;;31.53;67.93
23223;BME280;11780;13.904;100.620;2023-06-14T02:18:52;100990.69;;;31.57;67.94
23223;BME280;11780;13.904;100.620;2023-06-14T02:21:23;100992.16;;;31.55;68.26
23223;BME280;11780;13.904;100.620;2023-06-14T02:23:53;100983.84;;;31.55;68.15
23223;BME280;11780;13.904;100.620;2023-06-14T02:26:27;100986.91;;;31.53;68.17
23223;BME280;11780;13.904;100.620;2023-06-14T02:28:58;100993.63;;;31.52;68.03
23223;BME280;11780;13.904;100.620;2023-06-14T02:31:29;100983.53;;;31.56;68.07
23223;BME280;11780;13.904;100.620;2023-06-14T02:33:59;100986.91;;;31.53;67.49
23223;BME280;11780;13.904;100.620;2023-06-14T02:36:30;100990.19;;;31.55;67.70
23223;BME280;11780;13.904;100.620;2023-06-14T02:39:00;100991.31;;;31.54;67.64
23223;BME280;11780;13.904;100.620;2023-06-14T02:41:31;100982.22;;;31.54;67.71
23223;BME280;11780;13.904;100.620;2023-06-14T02:44:01;100984.66;;;31.55;67.45
23223;BME280;11780;13.904;100.620;2023-06-14T02:46:32;100980.75;;;31.56;67.31
23223;BME280;11780;13.904;100.620;2023-06-14T02:49:02;100978.81;;;31.57;67.55
23223;BME280;11780;13.904;100.620;2023-06-14T02:51:32;100971.31;;;31.57;67.04
23223;BME280;11780;13.904;100.620;2023-06-14T02:54:04;100972.16;;;31.58;66.96
23223;BME280;11780;13.904;100.620;2023-06-14T02:56:34;100979.31;;;31.59;67.07
23223;BME280;11780;13.904;100.620;2023-06-14T02:59:05;100977.50;;;31.63;67.13
23223;BME280;11780;13.904;100.620;2023-06-14T03:01:37;100982.38;;;31.57;67.12
23223;BME280;11780;13.904;100.620;2023-06-14T03:04:13;100977.69;;;31.58;67.03
23223;BME280;11780;13.904;100.620;2023-06-14T03:06:45;100977.19;;;31.65;66.74
23223;BME280;11780;13.904;100.620;2023-06-14T03:09:21;100973.44;;;31.61;66.71
23223;BME280;11780;13.904;100.620;2023-06-14T03:11:51;100967.91;;;31.61;66.53
23223;BME280;11780;13.904;100.620;2023-06-14T03:14:22;100964.03;;;31.62;66.77
23223;BME280;11780;13.904;100.620;2023-06-14T03:16:52;100965.16;;;31.61;66.45
23223;BME280;11780;13.904;100.620;2023-06-14T03:19:28;100963.69;;;31.63;66.26
23223;BME280;11780;13.904;100.620;2023-06-14T03:21:58;100963.88;;;31.67;66.27
23223;BME280;11780;13.904;100.620;2023-06-14T03:24:31;100965.50;;;31.68;66.56
23223;BME280;11780;13.904;100.620;2023-06-14T03:27:10;100966.31;;;31.68;66.38
23223;BME280;11780;13.904;100.620;2023-06-14T03:29:44;100962.41;;;31.69;65.83
23223;BME280;11780;13.904;100.620;2023-06-14T03:32:14;100955.25;;;31.68;66.08
23223;BME280;11780;13.904;100.620;2023-06-14T03:34:44;100956.88;;;31.69;66.04
23223;BME280;11780;13.904;100.620;2023-06-14T03:37:20;100945.50;;;31.71;66.03
23223;BME280;11780;13.904;100.620;2023-06-14T03:39:50;100958.69;;;31.74;66.06
23223;BME280;11780;13.904;100.620;2023-06-14T03:42:23;100965.03;;;31.74;65.96
23223;BME280;11780;13.904;100.620;2023-06-14T03:44:54;100970.25;;;31.76;65.82
23223;BME280;11780;13.904;100.620;2023-06-14T03:47:26;100966.34;;;31.77;65.74
23223;BME280;11780;13.904;100.620;2023-06-14T03:49:57;100964.38;;;31.78;65.85
23223;BME280;11780;13.904;100.620;2023-06-14T03:52:27;100962.44;;;31.78;65.85
23223;BME280;11780;13.904;100.620;2023-06-14T03:54:58;100960.16;;;31.80;65.82
23223;BME280;11780;13.904;100.620;2023-06-14T03:57:33;100962.94;;;31.80;65.52
23223;BME280;11780;13.904;100.620;2023-06-14T04:00:09;100961.44;;;31.83;65.29
23223;BME280;11780;13.904;100.620;2023-06-14T04:02:43;100958.38;;;31.84;65.48
23223;BME280;11780;13.904;100.620;2023-06-14T04:05:14;100965.06;;;31.83;64.73
23223;BME280;11780;13.904;100.620;2023-06-14T04:07:49;100971.53;;;31.87;64.62
23223;BME280;11780;13.904;100.620;2023-06-14T04:10:20;100968.63;;;31.84;64.45
23223;BME280;11780;13.904;100.620;2023-06-14T04:12:50;100973.81;;;31.85;63.93
23223;BME280;11780;13.904;100.620;2023-06-14T04:15:22;100964.22;;;31.83;64.51
23223;BME280;11780;13.904;100.620;2023-06-14T04:17:55;100969.75;;;31.83;64.47
23223;BME280;11780;13.904;100.620;2023-06-14T04:20:28;100973.00;;;31.85;64.01
23223;BME280;11780;13.904;100.620;2023-06-14T04:23:11;100968.63;;;31.84;64.48
23223;BME280;11780;13.904;100.620;2023-06-14T04:25:43;100961.16;;;31.84;64.43
23223;BME280;11780;13.904;100.620;2023-06-14T04:28:16;100957.22;;;31.85;63.26
23223;BME280;11780;13.904;100.620;2023-06-14T04:30:47;100954.78;;;31.84;62.45
23223;BME280;11780;13.904;100.620;2023-06-14T04:33:19;100965.84;;;31.84;62.93
23223;BME280;11780;13.904;100.620;2023-06-14T04:35:50;100960.81;;;31.86;62.55
23223;BME280;11780;13.904;100.620;2023-06-14T04:38:23;100972.69;;;31.86;62.28
23223;BME280;11780;13.904;100.620;2023-06-14T04:40:56;100960.31;;;31.84;62.46
23223;BME280;11780;13.904;100.620;2023-06-14T04:43:27;100971.72;;;31.82;62.66
23223;BME280;11780;13.904;100.620;2023-06-14T04:45:57;100962.59;;;31.82;62.96
23223;BME280;11780;13.904;100.620;2023-06-14T04:48:29;100965.06;;;31.83;62.51
23223;BME280;11780;13.904;100.620;2023-06-14T04:51:01;100966.97;;;31.83;61.94
23223;BME280;11780;13.904;100.620;2023-06-14T04:53:34;100966.97;;;31.83;61.25
23223;BME280;11780;13.904;100.620;2023-06-14T04:56:05;100963.41;;;31.82;61.13
23223;BME280;11780;13.904;100.620;2023-06-14T04:58:35;100956.25;;;31.81;61.48
23223;BME280;11780;13.904;100.620;2023-06-14T05:01:06;100953.16;;;31.83;61.68
23223;BME280;11780;13.904;100.620;2023-06-14T05:03:39;100949.59;;;31.82;61.61
23223;BME280;11780;13.904;100.620;2023-06-14T05:06:09;100949.09;;;31.80;61.46
23223;BME280;11780;13.904;100.620;2023-06-14T05:08:41;100940.94;;;31.84;61.07
23223;BME280;11780;13.904;100.620;2023-06-14T05:11:12;100938.53;;;31.82;61.63
23223;BME280;11780;13.904;100.620;2023-06-14T05:13:43;100944.56;;;31.84;61.18
23223;BME280;11780;13.904;100.620;2023-06-14T05:16:14;100940.63;;;31.85;61.16
23223;BME280;11780;13.904;100.620;2023-06-14T05:18:46;100940.16;;;31.83;61.07
23223;BME280;11780;13.904;100.620;2023-06-14T05:21:17;100942.75;;;31.88;61.21
23223;BME280;11780;13.904;100.620;2023-06-14T05:23:48;100953.81;;;31.88;61.17
23223;BME280;11780;13.904;100.620;2023-06-14T05:26:19;100953.50;;;31.90;61.23
23223;BME280;11780;13.904;100.620;2023-06-14T05:28:49;100937.53;;;31.87;63.98
23223;BME280;11780;13.904;100.620;2023-06-14T05:31:20;100931.19;;;31.86;64.95
23223;BME280;11780;13.904;100.620;2023-06-14T05:33:50;100927.94;;;31.84;64.47
23223;BME280;11780;13.904;100.620;2023-06-14T05:36:21;100927.94;;;31.84;64.32
23223;BME280;11780;13.904;100.620;2023-06-14T05:38:52;100920.94;;;31.87;64.09
23223;BME280;11780;13.904;100.620;2023-06-14T05:41:27;100918.50;;;31.85;64.28
23223;BME280;11780;13.904;100.620;2023-06-14T05:43:58;100908.25;;;31.86;64.17
23223;BME280;11780;13.904;100.620;2023-06-14T05:46:30;100907.91;;;31.87;64.33
23223;BME280;11780;13.904;100.620;2023-06-14T05:49:00;100908.41;;;31.89;64.45
23223;BME280;11780;13.904;100.620;2023-06-14T05:51:30;100900.09;;;31.89;63.80
23223;BME280;11780;13.904;100.620;2023-06-14T05:54:01;100899.47;;;31.93;63.71
23223;BME280;11780;13.904;100.620;2023-06-14T05:56:31;100896.19;;;31.91;63.87
23223;BME280;11780;13.904;100.620;2023-06-14T05:59:01;100884.50;;;31.94;63.60
23223;BME280;11780;13.904;100.620;2023-06-14T06:01:32;100899.47;;;31.93;63.47
23223;BME280;11780;13.904;100.620;2023-06-14T06:04:03;100886.91;;;31.95;63.51
23223;BME280;11780;13.904;100.620;2023-06-14T06:06:34;100873.75;;;31.92;63.21
23223;BME280;11780;13.904;100.620;2023-06-14T06:09:05;100861.88;;;31.92;63.07
23223;BME280;11780;13.904;100.620;2023-06-14T06:11:36;100856.81;;;31.94;62.86
23223;BME280;11780;13.904;100.620;2023-06-14T06:14:19;100868.03;;;31.97;63.18
23223;BME280;11780;13.904;100.620;2023-06-14T06:16:50;100861.06;;;32.00;62.71
23223;BME280;11780;13.904;100.620;2023-06-14T06:19:22;100863.47;;;32.01;62.71
23223;BME280;11780;13.904;100.620;2023-06-14T06:21:53;100850.44;;;32.02;62.18
23223;BME280;11780;13.904;100.620;2023-06-14T06:24:23;100843.28;;;32.01;62.39
23223;BME280;11780;13.904;100.620;2023-06-14T06:26:53;100836.47;;;31.98;62.23
23223;BME280;11780;13.904;100.620;2023-06-14T06:29:24;100832.56;;;31.99;62.19
23223;BME280;11780;13.904;100.620;2023-06-14T06:31:54;100825.09;;;32.00;62.39
23223;BME280;11780;13.904;100.620;2023-06-14T06:34:26;100824.88;;;32.05;62.16
23223;BME280;11780;13.904;100.620;2023-06-14T06:36:57;100829.63;;;32.04;61.96
23223;BME280;11780;13.904;100.620;2023-06-14T06:39:27;100818.88;;;32.03;62.68
23223;BME280;11780;13.904;100.620;2023-06-14T06:41:58;100814.47;;;32.02;62.68
23223;BME280;11780;13.904;100.620;2023-06-14T06:44:35;100810.09;;;32.01;62.18
23223;BME280;11780;13.904;100.620;2023-06-14T06:47:06;100809.44;;;32.04;62.04
23223;BME280;11780;13.904;100.620;2023-06-14T06:49:36;100804.72;;;32.04;61.84
23223;BME280;11780;13.904;100.620;2023-06-14T06:52:09;100803.25;;;32.07;61.65
23223;BME280;11780;13.904;100.620;2023-06-14T06:54:39;100794.94;;;32.07;61.68
23223;BME280;11780;13.904;100.620;2023-06-14T06:57:10;100803.72;;;32.09;61.57
23223;BME280;11780;13.904;100.620;2023-06-14T06:59:40;100797.72;;;32.07;62.10
23223;BME280;11780;13.904;100.620;2023-06-14T07:02:11;100793.31;;;32.06;62.09
23223;BME280;11780;13.904;100.620;2023-06-14T07:04:42;100793.81;;;32.08;61.77
23223;BME280;11780;13.904;100.620;2023-06-14T07:07:12;100783.53;;;32.09;61.91
23223;BME280;11780;13.904;100.620;2023-06-14T07:09:42;100791.53;;;32.10;61.70
23223;BME280;11780;13.904;100.620;2023-06-14T07:12:14;100789.22;;;32.12;61.42
23223;BME280;11780;13.904;100.620;2023-06-14T07:14:45;100791.19;;;32.12;61.09
23223;BME280;11780;13.904;100.620;2023-06-14T07:17:16;100789.22;;;32.12;61.07
23223;BME280;11780;13.904;100.620;2023-06-14T07:19:47;100784.50;;;32.13;61.25
23223;BME280;11780;13.904;100.620;2023-06-14T07:22:19;100788.56;;;32.15;61.20
23223;BME280;11780;13.904;100.620;2023-06-14T07:24:49;100782.56;;;32.13;61.31
23223;BME280;11780;13.904;100.620;2023-06-14T07:27:20;100765.47;;;32.11;61.37
23223;BME280;11780;13.904;100.620;2023-06-14T07:29:51;100778.16;;;32.12;61.56
23223;BME280;11780;13.904;100.620;2023-06-14T07:32:22;100776.53;;;32.11;61.09
23223;BME280;11780;13.904;100.620;2023-06-14T07:34:52;100772.94;;;32.11;61.49
23223;BME280;11780;13.904;100.620;2023-06-14T07:37:22;100773.78;;;32.11;61.28
23223;BME280;11780;13.904;100.620;2023-06-14T07:39:53;100768.72;;;32.13;61.09
23223;BME280;11780;13.904;100.620;2023-06-14T07:42:24;100766.75;;;32.14;61.04
23223;BME280;11780;13.904;100.620;2023-06-14T07:44:55;100760.91;;;32.15;61.13
23223;BME280;11780;13.904;100.620;2023-06-14T07:47:25;100751.78;;;32.15;60.88
23223;BME280;11780;13.904;100.620;2023-06-14T07:49:55;100743.63;;;32.18;60.90
23223;BME280;11780;13.904;100.620;2023-06-14T07:52:26;100742.47;;;32.19;61.18
23223;BME280;11780;13.904;100.620;2023-06-14T07:54:56;100742.81;;;32.18;61.38
23223;BME280;11780;13.904;100.620;2023-06-14T07:57:27;100736.13;;;32.19;61.31
23223;BME280;11780;13.904;100.620;2023-06-14T07:59:57;100736.28;;;32.23;60.94
23223;BME280;11780;13.904;100.620;2023-06-14T08:02:38;100729.13;;;32.22;61.08
23223;BME280;11780;13.904;100.620;2023-06-14T08:05:10;100724.25;;;32.18;61.12
23223;BME280;11780;13.904;100.620;2023-06-14T08:07:41;100718.03;;;32.22;61.24
23223;BME280;11780;13.904;100.620;2023-06-14T08:10:12;100717.38;;;32.25;60.84
23223;BME280;11780;13.904;100.620;2023-06-14T08:12:43;100717.72;;;32.23;61.16
23223;BME280;11780;13.904;100.620;2023-06-14T08:15:13;100711.38;;;32.23;61.40
23223;BME280;11780;13.904;100.620;2023-06-14T08:17:46;100714.00;;;32.19;60.86
23223;BME280;11780;13.904;100.620;2023-06-14T08:20:16;100716.41;;;32.20;60.81
23223;BME280;11780;13.904;100.620;2023-06-14T08:22:47;100703.06;;;32.23;60.90
23223;BME280;11780;13.904;100.620;2023-06-14T08:25:18;100705.03;;;32.22;60.92
23223;BME280;11780;13.904;100.620;2023-06-14T08:27:48;100698.19;;;32.19;60.71
23223;BME280;11780;13.904;100.620;2023-06-14T08:30:19;100690.72;;;32.20;60.93
23223;BME280;11780;13.904;100.620;2023-06-14T08:32:50;100679.31;;;32.22;60.89
23223;BME280;11780;13.904;100.620;2023-06-14T08:35:40;100678.97;;;32.23;61.07
23223;BME280;11780;13.904;100.620;2023-06-14T08:38:11;100670.53;;;32.19;60.91
23223;BME280;11780;13.904;100.620;2023-06-14T08:40:42;100667.09;;;32.23;60.94
23223;BME280;11780;13.904;100.620;2023-06-14T08:43:12;100664.31;;;32.23;60.92
23223;BME280;11780;13.904;100.620;2023-06-14T08:45:43;100660.41;;;32.24;60.87
23223;BME280;11780;13.904;100.620;2023-06-14T08:48:14;100660.41;;;32.24;61.05
23223;BME280;11780;13.904;100.620;2023-06-14T08:50:48;100659.63;;;32.23;60.68
23223;BME280;11780;13.904;100.620;2023-06-14T08:53:22;100658.00;;;32.22;61.18
23223;BME280;11780;13.904;100.620;2023-06-14T08:56:02;100660.41;;;32.24;61.10
23223;BME280;11780;13.904;100.620;2023-06-14T08:58:34;100657.63;;;32.24;60.94
23223;BME280;11780;13.904;100.620;2023-06-14T09:01:06;100658.16;;;32.26;61.15
23223;BME280;11780;13.904;100.620;2023-06-14T09:03:38;100657.81;;;32.27;60.73
23223;BME280;11780;13.904;100.620;2023-06-14T09:06:11;100651.47;;;32.27;60.92
23223;BME280;11780;13.904;100.620;2023-06-14T09:08:44;100657.00;;;32.27;60.98
23223;BME280;11780;13.904;100.620;2023-06-14T09:11:18;100660.56;;;32.27;61.24
23223;BME280;11780;13.904;100.620;2023-06-14T09:13:50;100663.81;;;32.29;61.09
23223;BME280;11780;13.904;100.620;2023-06-14T09:16:20;100663.03;;;32.29;61.10
23223;BME280;11780;13.904;100.620;2023-06-14T09:18:51;100653.56;;;32.30;61.36
23223;BME280;11780;13.904;100.620;2023-06-14T09:21:26;100649.19;;;32.29;60.93
23223;BME280;11780;13.904;100.620;2023-06-14T09:23:59;100647.56;;;32.28;60.80
23223;BME280;11780;13.904;100.620;2023-06-14T09:26:31;100651.13;;;32.28;61.53
23223;BME280;11780;13.904;100.620;2023-06-14T09:29:01;100655.19;;;32.31;61.58
23223;BME280;11780;13.904;100.620;2023-06-14T09:31:31;100655.19;;;32.31;61.67
23223;BME280;11780;13.904;100.620;2023-06-14T09:34:02;100667.06;;;32.31;61.42
23223;BME280;11780;13.904;100.620;2023-06-14T09:36:33;100657.97;;;32.31;61.59
23223;BME280;11780;13.904;100.620;2023-06-14T09:39:03;100657.97;;;32.31;61.27
23223;BME280;11780;13.904;100.620;2023-06-14T09:41:39;100662.50;;;32.36;61.42
23223;BME280;11780;13.904;100.620;2023-06-14T09:44:11;100665.91;;;32.32;61.58
23223;BME280;11780;13.904;100.620;2023-06-14T09:46:48;100672.72;;;32.35;61.38
23223;BME280;11780;13.904;100.620;2023-06-14T09:49:19;100675.50;;;32.35;61.04
23223;BME280;11780;13.904;100.620;2023-06-14T09:51:51;100668.03;;;32.36;61.17
23223;BME280;11780;13.904;100.620;2023-06-14T09:54:32;100651.25;;;32.32;61.40
23223;BME280;11780;13.904;100.620;2023-06-14T09:57:06;100641.81;;;32.33;61.57
23223;BME280;11780;13.904;100.620;2023-06-14T09:59:43;100638.59;;;32.31;61.27
23223;BME280;11780;13.904;100.620;2023-06-14T10:02:34;100640.88;;;32.29;61.65
23223;BME280;11780;13.904;100.620;2023-06-14T10:05:08;100647.69;;;32.31;61.74
23223;BME280;11780;13.904;100.620;2023-06-14T10:07:42;100649.97;;;32.29;61.89
23223;BME280;11780;13.904;100.620;2023-06-14T10:10:15;100651.25;;;32.32;61.83
23223;BME280;11780;13.904;100.620;2023-06-14T10:12:46;100652.06;;;32.32;61.71
23223;BME280;11780;13.904;100.620;2023-06-14T10:15:38;100662.31;;;32.32;61.67
23223;BME280;11780;13.904;100.620;2023-06-14T10:18:40;100667.72;;;32.28;62.05
23223;BME280;11780;13.904;100.620;2023-06-14T10:21:28;100661.41;;;32.28;62.05
23223;BME280;11780;13.904;100.620;2023-06-14T10:24:05;100654.25;;;32.27;62.51
23223;BME280;11780;13.904;100.620;2023-06-14T10:26:56;100657.28;;;32.25;62.42
23223;BME280;11780;13.904;100.620;2023-06-14T10:29:28;100666.09;;;32.27;62.66
23223;BME280;11780;13.904;100.620;2023-06-14T10:32:02;100667.56;;;32.25;62.74
23223;BME280;11780;13.904;100.620;2023-06-14T10:34:42;100665.94;;;32.24;62.71
23223;BME280;11780;13.904;100.620;2023-06-14T10:37:13;100679.78;;;32.24;62.91
23223;BME280;11780;13.904;100.620;2023-06-14T10:39:45;100679.44;;;32.25;63.00
23223;BME280;11780;13.904;100.620;2023-06-14T10:42:15;100676.22;;;32.23;62.97
23223;BME280;11780;13.904;100.620;2023-06-14T10:44:50;100678.16;;;32.23;63.06
23223;BME280;11780;13.904;100.620;2023-06-14T10:50:07;100677.34;;;32.22;63.64
23223;BME280;11780;13.904;100.620;2023-06-14T10:52:39;100678.50;;;32.21;63.55
23223;BME280;11780;13.904;100.620;2023-06-14T10:55:17;100683.69;;;32.23;63.96
23223;BME280;11780;13.904;100.620;2023-06-14T10:57:53;100679.66;;;32.20;64.21
23223;BME280;11780;13.904;100.620;2023-06-14T11:00:29;100678.03;;;32.19;64.29
23223;BME280;11780;13.904;100.620;2023-06-14T11:05:55;100701.13;;;32.23;63.99
23223;BME280;11780;13.904;100.620;2023-06-14T11:11:22;100705.34;;;32.20;64.51
23223;BME280;11780;13.904;100.620;2023-06-14T11:13:53;100714.13;;;32.23;64.47
23223;BME280;11780;13.904;100.620;2023-06-14T11:16:26;100711.22;;;32.19;64.83
23223;BME280;11780;13.904;100.620;2023-06-14T11:19:03;100708.78;;;32.17;65.05
23223;BME280;11780;13.904;100.620;2023-06-14T11:21:33;100704.88;;;32.18;65.10
23223;BME280;11780;13.904;100.620;2023-06-14T11:24:04;100706.84;;;32.18;64.95
23223;BME280;11780;13.904;100.620;2023-06-14T11:26:40;100704.38;;;32.16;65.03
23223;BME280;11780;13.904;100.620;2023-06-14T11:29:11;100715.16;;;32.18;65.17
23223;BME280;11780;13.904;100.620;2023-06-14T11:31:45;100715.81;;;32.15;65.42
23223;BME280;11780;13.904;100.620;2023-06-14T11:34:15;100723.63;;;32.13;65.69
23223;BME280;11780;13.904;100.620;2023-06-14T11:36:46;100720.53;;;32.14;65.41
23223;BME280;11780;13.904;100.620;2023-06-14T11:39:17;100717.78;;;32.14;65.54
23223;BME280;11780;13.904;100.620;2023-06-14T11:41:49;100724.59;;;32.17;65.20
23223;BME280;11780;13.904;100.620;2023-06-14T11:44:19;100714.03;;;32.10;65.30
23223;BME280;11780;13.904;100.620;2023-06-14T11:46:49;100716.16;;;32.13;65.40
23223;BME280;11780;13.904;100.620;2023-06-14T11:49:20;100718.44;;;32.11;65.09
23223;BME280;11780;13.904;100.620;2023-06-14T11:51:53;100714.53;;;32.12;65.27
23223;BME280;11780;13.904;100.620;2023-06-14T11:54:23;100703.78;;;32.11;65.53
23223;BME280;11780;13.904;100.620;2023-06-14T11:56:53;100699.53;;;32.13;65.39
23223;BME280;11780;13.904;100.620;2023-06-14T11:59:24;100700.22;;;32.10;65.79
23223;BME280;11780;13.904;100.620;2023-06-14T12:01:55;100690.09;;;32.14;65.55
23223;BME280;11780;13.904;100.620;2023-06-14T12:04:29;100692.38;;;32.12;65.93
23223;BME280;11780;13.904;100.620;2023-06-14T12:07:15;100692.38;;;32.12;65.63
23223;BME280;11780;13.904;100.620;2023-06-14T12:12:24;100700.22;;;32.10;65.90
23223;BME280;11780;13.904;100.620;2023-06-14T12:14:59;100707.38;;;32.11;65.69
23223;BME280;11780;13.904;100.620;2023-06-14T12:17:32;100702.50;;;32.08;65.58
23223;BME280;11780;13.904;100.620;2023-06-14T12:20:10;100708.38;;;32.07;65.36
23223;BME280;11780;13.904;100.620;2023-06-14T12:23:03;100705.59;;;32.07;65.16
23223;BME280;11780;13.904;100.620;2023-06-14T12:25:35;100704.13;;;32.09;64.49
23223;BME280;11780;13.904;100.620;2023-06-14T12:28:09;100707.53;;;32.06;64.28
23223;BME280;11780;13.904;100.620;2023-06-14T12:30:40;100704.13;;;32.09;64.28
23223;BME280;11780;13.904;100.620;2023-06-14T12:33:10;100710.44;;;32.10;64.40
23223;BME280;11780;13.904;100.620;2023-06-14T12:35:41;100716.31;;;32.08;64.20
23223;BME280;11780;13.904;100.620;2023-06-14T12:38:11;100723.97;;;32.11;64.26
23223;BME280;11780;13.904;100.620;2023-06-14T12:40:42;100722.47;;;32.14;64.13
23223;BME280;11780;13.904;100.620;2023-06-14T12:43:12;100720.84;;;32.13;64.09
23223;BME280;11780;13.904;100.620;2023-06-14T12:45:46;100722.34;;;32.10;64.20
23223;BME280;11780;13.904;100.620;2023-06-14T12:48:17;100730.97;;;32.09;64.28
23223;BME280;11780;13.904;100.620;2023-06-14T12:50:47;100727.03;;;32.10;63.96
23223;BME280;11780;13.904;100.620;2023-06-14T12:53:18;100738.13;;;32.10;63.76
23223;BME280;11780;13.904;100.620;2023-06-14T12:55:49;100749.84;;;32.15;63.83
23223;BME280;11780;13.904;100.620;2023-06-14T12:58:19;100757.16;;;32.11;63.91
23223;BME280;11780;13.904;100.620;2023-06-14T13:00:50;100752.28;;;32.08;63.77
23223;BME280;11780;13.904;100.620;2023-06-14T13:03:20;100762.22;;;32.09;63.62
23223;BME280;11780;13.904;100.620;2023-06-14T13:05:51;100756.19;;;32.07;63.47
23223;BME280;11780;13.904;100.620;2023-06-14T13:08:21;100762.56;;;32.08;63.55
23223;BME280;11780;13.904;100.620;2023-06-14T13:10:52;100774.91;;;32.10;63.45
23223;BME280;11780;13.904;100.620;2023-06-14T13:13:23;100770.00;;;32.16;63.36